sensor_id;sensor_type;location;lat;lon;timestamp;P1;durP1;ratioP1;P2;durP2;ratioP2
40252;SDS011;25972;51.854;4.534;2022-11-15T00:01:22;62.03;;;20.65;;
40252;SDS011;25972;51.854;4.534;2022-11-15T00:04:06;57.08;;;20.17;;
40252;SDS011;25972;51.854;4.534;2022-11-15T00:06:51;71.60;;;24.77;;
40252;SDS011;25972;51.854;4.534;2022-11-15T00:09:34;57.35;;;21.83;;
40252;SDS011;25972;51.854;4.534;2022-11-15T00:12:22;68.15;;;24.20;;
40252;SDS011;25972;51.854;4.534;2022-11-15T00:15:06;72.15;;;23.40;;
40252;SDS011;25972;51.854;4.534;2022-11-15T00:17:51;62.03;;;22.02;;
40252;SDS011;25972;51.854;4.534;2022-11-15T00:20:35;61.10;;;21.55;;
40252;SDS011;25972;51.854;4.534;2022-11-15T00:23:20;63.80;;;23.13;;
40252;SDS011;25972;51.854;4.534;2022-11-15T00:26:04;61.88;;;21.65;;
40252;SDS011;25972;51.854;4.534;2022-11-15T00:28:51;64.20;;;20.88;;
40252;SDS011;25972;51.854;4.534;2022-11-15T00:31:36;63.95;;;22.52;;
40252;SDS011;25972;51.854;4.534;2022-11-15T00:34:20;62.90;;;21.88;;
40252;SDS011;25972;51.854;4.534;2022-11-15T00:37:05;66.18;;;22.13;;
40252;SDS011;25972;51.854;4.534;2022-11-15T00:39:50;59.90;;;22.05;;
40252;SDS011;25972;51.854;4.534;2022-11-15T00:42:34;70.32;;;22.85;;
40252;SDS011;25972;51.854;4.534;2022-11-15T00:45:18;75.82;;;25.15;;
40252;SDS011;25972;51.854;4.534;2022-11-15T00:48:02;71.93;;;23.77;;
40252;SDS011;25972;51.854;4.534;2022-11-15T00:50:48;86.60;;;26.55;;
40252;SDS011;25972;51.854;4.534;2022-11-15T00:53:33;65.22;;;22.90;;
40252;SDS011;25972;51.854;4.534;2022-11-15T00:56:17;80.22;;;26.98;;
40252;SDS011;25972;51.854;4.534;2022-11-15T00:59:02;80.22;;;26.08;;
40252;SDS011;25972;51.854;4.534;2022-11-15T01:01:46;79.03;;;24.30;;
40252;SDS011;25972;51.854;4.534;2022-11-15T01:04:31;75.78;;;25.27;;
40252;SDS011;25972;51.854;4.534;2022-11-15T01:07:15;64.47;;;23.27;;
40252;SDS011;25972;51.854;4.534;2022-11-15T01:09:59;71.53;;;24.90;;
40252;SDS011;25972;51.854;4.534;2022-11-15T01:12:44;77.00;;;23.85;;
40252;SDS011;25972;51.854;4.534;2022-11-15T01:15:28;77.78;;;23.45;;
40252;SDS011;25972;51.854;4.534;2022-11-15T01:18:13;64.85;;;24.15;;
40252;SDS011;25972;51.854;4.534;2022-11-15T01:20:57;78.00;;;25.42;;
40252;SDS011;25972;51.854;4.534;2022-11-15T01:23:42;66.30;;;24.10;;
40252;SDS011;25972;51.854;4.534;2022-11-15T01:26:26;68.00;;;24.08;;
40252;SDS011;25972;51.854;4.534;2022-11-15T01:29:11;72.88;;;25.00;;
40252;SDS011;25972;51.854;4.534;2022-11-15T01:31:55;63.88;;;24.63;;
40252;SDS011;25972;51.854;4.534;2022-11-15T01:34:39;71.70;;;24.63;;
40252;SDS011;25972;51.854;4.534;2022-11-15T01:37:23;66.75;;;25.65;;
40252;SDS011;25972;51.854;4.534;2022-11-15T01:40:08;62.20;;;24.23;;
40252;SDS011;25972;51.854;4.534;2022-11-15T01:42:52;67.70;;;23.67;;
40252;SDS011;25972;51.854;4.534;2022-11-15T01:45:37;63.45;;;24.00;;
40252;SDS011;25972;51.854;4.534;2022-11-15T01:48:23;63.72;;;24.08;;
40252;SDS011;25972;51.854;4.534;2022-11-15T01:51:13;69.40;;;24.65;;
40252;SDS011;25972;51.854;4.534;2022-11-15T01:54:02;74.82;;;24.73;;
40252;SDS011;25972;51.854;4.534;2022-11-15T01:56:53;58.65;;;22.27;;
40252;SDS011;25972;51.854;4.534;2022-11-15T01:59:44;64.28;;;24.23;;
40252;SDS011;25972;51.854;4.534;2022-11-15T02:02:29;59.72;;;22.38;;
40252;SDS011;25972;51.854;4.534;2022-11-15T02:05:13;59.67;;;22.83;;
40252;SDS011;25972;51.854;4.534;2022-11-15T02:07:59;61.60;;;22.35;;
40252;SDS011;25972;51.854;4.534;2022-11-15T02:10:44;56.88;;;22.73;;
40252;SDS011;25972;51.854;4.534;2022-11-15T02:13:29;46.97;;;20.10;;
40252;SDS011;25972;51.854;4.534;2022-11-15T02:16:20;61.17;;;21.60;;
40252;SDS011;25972;51.854;4.534;2022-11-15T02:22:35;55.13;;;19.60;;
40252;SDS011;25972;51.854;4.534;2022-11-15T02:29:28;40.08;;;17.95;;
40252;SDS011;25972;51.854;4.534;2022-11-15T02:31:46;46.25;;;19.35;;
40252;SDS011;25972;51.854;4.534;2022-11-15T02:37:49;42.65;;;19.98;;
40252;SDS011;25972;51.854;4.534;2022-11-15T02:40:45;47.28;;;19.00;;
40252;SDS011;25972;51.854;4.534;2022-11-15T02:43:37;41.85;;;18.17;;
40252;SDS011;25972;51.854;4.534;2022-11-15T02:46:48;37.50;;;17.52;;
40252;SDS011;25972;51.854;4.534;2022-11-15T02:50:00;44.97;;;19.00;;
40252;SDS011;25972;51.854;4.534;2022-11-15T02:52:49;40.83;;;17.70;;
40252;SDS011;25972;51.854;4.534;2022-11-15T02:55:35;43.33;;;17.67;;
40252;SDS011;25972;51.854;4.534;2022-11-15T03:01:37;35.83;;;17.73;;
40252;SDS011;25972;51.854;4.534;2022-11-15T03:10:24;31.63;;;15.68;;
40252;SDS011;25972;51.854;4.534;2022-11-15T03:13:26;39.28;;;15.85;;
40252;SDS011;25972;51.854;4.534;2022-11-15T03:19:37;37.33;;;16.23;;
40252;SDS011;25972;51.854;4.534;2022-11-15T03:22:28;34.08;;;15.45;;
40252;SDS011;25972;51.854;4.534;2022-11-15T03:25:18;29.42;;;13.43;;
40252;SDS011;25972;51.854;4.534;2022-11-15T03:28:06;37.08;;;15.38;;
40252;SDS011;25972;51.854;4.534;2022-11-15T03:30:55;31.58;;;14.88;;
40252;SDS011;25972;51.854;4.534;2022-11-15T03:33:40;31.35;;;15.30;;
40252;SDS011;25972;51.854;4.534;2022-11-15T03:36:25;27.65;;;14.43;;
40252;SDS011;25972;51.854;4.534;2022-11-15T03:39:10;30.63;;;12.68;;
40252;SDS011;25972;51.854;4.534;2022-11-15T03:42:01;32.45;;;14.13;;
40252;SDS011;25972;51.854;4.534;2022-11-15T03:45:17;28.52;;;13.48;;
40252;SDS011;25972;51.854;4.534;2022-11-15T03:48:12;18.38;;;8.35;;
40252;SDS011;25972;51.854;4.534;2022-11-15T03:51:00;28.33;;;13.32;;
40252;SDS011;25972;51.854;4.534;2022-11-15T03:53:45;25.83;;;12.50;;
40252;SDS011;25972;51.854;4.534;2022-11-15T03:56:30;25.77;;;11.43;;
40252;SDS011;25972;51.854;4.534;2022-11-15T03:59:14;33.80;;;11.75;;
40252;SDS011;25972;51.854;4.534;2022-11-15T04:01:59;25.15;;;10.68;;
40252;SDS011;25972;51.854;4.534;2022-11-15T04:04:43;25.92;;;11.25;;
40252;SDS011;25972;51.854;4.534;2022-11-15T04:07:27;24.45;;;12.48;;
40252;SDS011;25972;51.854;4.534;2022-11-15T04:10:12;22.92;;;10.18;;
40252;SDS011;25972;51.854;4.534;2022-11-15T04:12:56;26.60;;;12.23;;
40252;SDS011;25972;51.854;4.534;2022-11-15T04:15:40;24.63;;;11.07;;
40252;SDS011;25972;51.854;4.534;2022-11-15T04:18:25;26.88;;;11.32;;
40252;SDS011;25972;51.854;4.534;2022-11-15T04:21:09;21.10;;;9.98;;
40252;SDS011;25972;51.854;4.534;2022-11-15T04:24:12;24.25;;;9.95;;
40252;SDS011;25972;51.854;4.534;2022-11-15T04:26:57;17.70;;;8.95;;
40252;SDS011;25972;51.854;4.534;2022-11-15T04:29:41;21.15;;;10.32;;
40252;SDS011;25972;51.854;4.534;2022-11-15T04:32:26;23.40;;;10.82;;
40252;SDS011;25972;51.854;4.534;2022-11-15T04:35:10;19.40;;;9.75;;
40252;SDS011;25972;51.854;4.534;2022-11-15T04:37:55;19.70;;;9.20;;
40252;SDS011;25972;51.854;4.534;2022-11-15T04:40:41;20.77;;;9.38;;
40252;SDS011;25972;51.854;4.534;2022-11-15T04:43:26;20.27;;;7.80;;
40252;SDS011;25972;51.854;4.534;2022-11-15T04:46:10;22.15;;;10.18;;
40252;SDS011;25972;51.854;4.534;2022-11-15T04:48:54;23.83;;;10.38;;
40252;SDS011;25972;51.854;4.534;2022-11-15T04:51:39;21.70;;;9.52;;
40252;SDS011;25972;51.854;4.534;2022-11-15T04:54:23;21.13;;;9.32;;
40252;SDS011;25972;51.854;4.534;2022-11-15T04:57:08;18.15;;;7.93;;
40252;SDS011;25972;51.854;4.534;2022-11-15T04:59:52;18.17;;;7.80;;
40252;SDS011;25972;51.854;4.534;2022-11-15T05:02:36;15.10;;;5.35;;
40252;SDS011;25972;51.854;4.534;2022-11-15T05:05:40;18.42;;;8.13;;
40252;SDS011;25972;51.854;4.534;2022-11-15T05:08:25;17.23;;;6.18;;
40252;SDS011;25972;51.854;4.534;2022-11-15T05:11:10;22.73;;;8.30;;
40252;SDS011;25972;51.854;4.534;2022-11-15T05:13:54;16.63;;;7.43;;
40252;SDS011;25972;51.854;4.534;2022-11-15T05:16:39;15.45;;;5.50;;
40252;SDS011;25972;51.854;4.534;2022-11-15T05:19:23;11.35;;;5.90;;
40252;SDS011;25972;51.854;4.534;2022-11-15T05:22:08;16.88;;;5.78;;
40252;SDS011;25972;51.854;4.534;2022-11-15T05:24:52;19.13;;;8.02;;
40252;SDS011;25972;51.854;4.534;2022-11-15T05:27:36;17.17;;;5.90;;
40252;SDS011;25972;51.854;4.534;2022-11-15T05:30:20;15.40;;;7.03;;
40252;SDS011;25972;51.854;4.534;2022-11-15T05:33:05;16.40;;;7.60;;
40252;SDS011;25972;51.854;4.534;2022-11-15T05:35:50;13.20;;;5.75;;
40252;SDS011;25972;51.854;4.534;2022-11-15T05:38:41;18.52;;;6.35;;
40252;SDS011;25972;51.854;4.534;2022-11-15T05:41:32;18.63;;;6.63;;
40252;SDS011;25972;51.854;4.534;2022-11-15T05:44:26;15.57;;;6.22;;
40252;SDS011;25972;51.854;4.534;2022-11-15T05:47:13;15.50;;;6.65;;
40252;SDS011;25972;51.854;4.534;2022-11-15T05:50:02;12.80;;;4.95;;
40252;SDS011;25972;51.854;4.534;2022-11-15T05:52:47;11.80;;;5.53;;
40252;SDS011;25972;51.854;4.534;2022-11-15T05:55:32;13.48;;;5.93;;
40252;SDS011;25972;51.854;4.534;2022-11-15T05:58:16;14.95;;;4.15;;
40252;SDS011;25972;51.854;4.534;2022-11-15T06:01:02;18.60;;;6.70;;
40252;SDS011;25972;51.854;4.534;2022-11-15T06:03:47;10.40;;;3.45;;
40252;SDS011;25972;51.854;4.534;2022-11-15T06:06:32;15.25;;;5.18;;
40252;SDS011;25972;51.854;4.534;2022-11-15T06:09:16;16.95;;;5.55;;
40252;SDS011;25972;51.854;4.534;2022-11-15T06:12:01;13.20;;;5.10;;
40252;SDS011;25972;51.854;4.534;2022-11-15T06:14:45;6.50;;;2.78;;
40252;SDS011;25972;51.854;4.534;2022-11-15T06:17:30;11.23;;;4.70;;
40252;SDS011;25972;51.854;4.534;2022-11-15T06:20:14;16.90;;;4.88;;
40252;SDS011;25972;51.854;4.534;2022-11-15T06:23:00;5.28;;;2.50;;
40252;SDS011;25972;51.854;4.534;2022-11-15T06:25:46;15.02;;;4.60;;
40252;SDS011;25972;51.854;4.534;2022-11-15T06:28:31;11.00;;;4.30;;
40252;SDS011;25972;51.854;4.534;2022-11-15T06:31:16;9.32;;;4.05;;
40252;SDS011;25972;51.854;4.534;2022-11-15T06:34:01;8.18;;;3.55;;
40252;SDS011;25972;51.854;4.534;2022-11-15T06:36:45;11.73;;;4.72;;
40252;SDS011;25972;51.854;4.534;2022-11-15T06:39:30;13.38;;;5.60;;
40252;SDS011;25972;51.854;4.534;2022-11-15T06:42:14;14.32;;;5.55;;
40252;SDS011;25972;51.854;4.534;2022-11-15T06:44:59;10.65;;;4.53;;
40252;SDS011;25972;51.854;4.534;2022-11-15T06:47:46;13.85;;;5.40;;
40252;SDS011;25972;51.854;4.534;2022-11-15T06:50:31;11.65;;;4.75;;
40252;SDS011;25972;51.854;4.534;2022-11-15T06:53:15;16.85;;;5.55;;
40252;SDS011;25972;51.854;4.534;2022-11-15T06:56:00;13.57;;;5.30;;
40252;SDS011;25972;51.854;4.534;2022-11-15T06:58:45;14.85;;;5.55;;
40252;SDS011;25972;51.854;4.534;2022-11-15T07:01:30;15.05;;;5.10;;
40252;SDS011;25972;51.854;4.534;2022-11-15T07:04:15;16.67;;;5.35;;
40252;SDS011;25972;51.854;4.534;2022-11-15T07:06:59;16.42;;;5.40;;
40252;SDS011;25972;51.854;4.534;2022-11-15T07:09:43;10.50;;;4.28;;
40252;SDS011;25972;51.854;4.534;2022-11-15T07:12:27;11.45;;;4.80;;
40252;SDS011;25972;51.854;4.534;2022-11-15T07:15:12;16.33;;;5.13;;
40252;SDS011;25972;51.854;4.534;2022-11-15T07:17:59;17.98;;;4.50;;
40252;SDS011;25972;51.854;4.534;2022-11-15T07:20:44;16.70;;;5.63;;
40252;SDS011;25972;51.854;4.534;2022-11-15T07:23:29;14.05;;;5.20;;
40252;SDS011;25972;51.854;4.534;2022-11-15T07:26:13;10.25;;;5.00;;
40252;SDS011;25972;51.854;4.534;2022-11-15T07:28:57;14.77;;;4.90;;
40252;SDS011;25972;51.854;4.534;2022-11-15T07:31:42;13.98;;;6.30;;
40252;SDS011;25972;51.854;4.534;2022-11-15T07:34:26;12.23;;;4.80;;
40252;SDS011;25972;51.854;4.534;2022-11-15T07:37:11;12.07;;;5.50;;
40252;SDS011;25972;51.854;4.534;2022-11-15T07:39:55;14.48;;;5.60;;
40252;SDS011;25972;51.854;4.534;2022-11-15T07:42:39;10.60;;;4.60;;
40252;SDS011;25972;51.854;4.534;2022-11-15T07:45:40;16.65;;;7.22;;
40252;SDS011;25972;51.854;4.534;2022-11-15T07:48:28;18.23;;;6.40;;
40252;SDS011;25972;51.854;4.534;2022-11-15T07:51:12;16.13;;;6.40;;
40252;SDS011;25972;51.854;4.534;2022-11-15T07:53:57;14.05;;;6.10;;
40252;SDS011;25972;51.854;4.534;2022-11-15T07:56:42;23.30;;;6.95;;
40252;SDS011;25972;51.854;4.534;2022-11-15T07:59:26;15.32;;;6.53;;
40252;SDS011;25972;51.854;4.534;2022-11-15T08:02:11;13.25;;;6.38;;
40252;SDS011;25972;51.854;4.534;2022-11-15T08:04:55;17.85;;;6.15;;
40252;SDS011;25972;51.854;4.534;2022-11-15T08:07:40;12.13;;;5.78;;
40252;SDS011;25972;51.854;4.534;2022-11-15T08:10:25;16.20;;;6.78;;
40252;SDS011;25972;51.854;4.534;2022-11-15T08:13:11;13.02;;;5.65;;
40252;SDS011;25972;51.854;4.534;2022-11-15T08:15:59;15.35;;;6.07;;
40252;SDS011;25972;51.854;4.534;2022-11-15T08:18:45;17.60;;;6.63;;
40252;SDS011;25972;51.854;4.534;2022-11-15T08:21:29;14.10;;;6.22;;
40252;SDS011;25972;51.854;4.534;2022-11-15T08:24:14;10.10;;;5.40;;
40252;SDS011;25972;51.854;4.534;2022-11-15T08:26:59;19.52;;;5.80;;
40252;SDS011;25972;51.854;4.534;2022-11-15T08:29:44;11.68;;;5.90;;
40252;SDS011;25972;51.854;4.534;2022-11-15T08:32:30;17.88;;;6.10;;
40252;SDS011;25972;51.854;4.534;2022-11-15T08:35:14;13.15;;;5.43;;
40252;SDS011;25972;51.854;4.534;2022-11-15T08:37:59;5.85;;;3.03;;
40252;SDS011;25972;51.854;4.534;2022-11-15T08:40:44;10.40;;;5.22;;
40252;SDS011;25972;51.854;4.534;2022-11-15T08:43:28;13.80;;;6.25;;
40252;SDS011;25972;51.854;4.534;2022-11-15T08:46:13;16.40;;;4.90;;
40252;SDS011;25972;51.854;4.534;2022-11-15T08:48:58;8.38;;;3.28;;
40252;SDS011;25972;51.854;4.534;2022-11-15T08:51:42;15.55;;;6.25;;
40252;SDS011;25972;51.854;4.534;2022-11-15T08:54:26;13.30;;;6.30;;
40252;SDS011;25972;51.854;4.534;2022-11-15T08:57:10;10.98;;;4.43;;
40252;SDS011;25972;51.854;4.534;2022-11-15T08:59:54;13.65;;;5.15;;
40252;SDS011;25972;51.854;4.534;2022-11-15T09:02:39;13.60;;;5.95;;
40252;SDS011;25972;51.854;4.534;2022-11-15T09:05:24;10.70;;;5.05;;
40252;SDS011;25972;51.854;4.534;2022-11-15T09:08:09;12.75;;;4.63;;
40252;SDS011;25972;51.854;4.534;2022-11-15T09:10:53;13.43;;;4.88;;
40252;SDS011;25972;51.854;4.534;2022-11-15T09:13:38;13.00;;;5.72;;
40252;SDS011;25972;51.854;4.534;2022-11-15T09:16:22;9.27;;;4.30;;
40252;SDS011;25972;51.854;4.534;2022-11-15T09:19:07;11.43;;;4.72;;
40252;SDS011;25972;51.854;4.534;2022-11-15T09:21:51;13.43;;;4.55;;
40252;SDS011;25972;51.854;4.534;2022-11-15T09:24:36;8.32;;;4.15;;
40252;SDS011;25972;51.854;4.534;2022-11-15T09:27:21;11.07;;;4.20;;
40252;SDS011;25972;51.854;4.534;2022-11-15T09:30:05;11.88;;;4.45;;
40252;SDS011;25972;51.854;4.534;2022-11-15T09:32:50;8.98;;;4.00;;
40252;SDS011;25972;51.854;4.534;2022-11-15T09:35:34;12.57;;;3.92;;
40252;SDS011;25972;51.854;4.534;2022-11-15T09:38:19;12.60;;;3.15;;
40252;SDS011;25972;51.854;4.534;2022-11-15T09:50:12;9.27;;;3.13;;
40252;SDS011;25972;51.854;4.534;2022-11-15T09:52:43;9.98;;;4.10;;
40252;SDS011;25972;51.854;4.534;2022-11-15T09:55:11;8.65;;;3.20;;
40252;SDS011;25972;51.854;4.534;2022-11-15T10:00:40;10.27;;;3.55;;
40252;SDS011;25972;51.854;4.534;2022-11-15T10:06:00;6.78;;;3.10;;
40252;SDS011;25972;51.854;4.534;2022-11-15T10:11:23;11.00;;;3.80;;
40252;SDS011;25972;51.854;4.534;2022-11-15T10:13:52;10.63;;;3.63;;
40252;SDS011;25972;51.854;4.534;2022-11-15T10:27:34;8.65;;;3.05;;
40252;SDS011;25972;51.854;4.534;2022-11-15T10:30:00;4.95;;;2.55;;
40252;SDS011;25972;51.854;4.534;2022-11-15T10:32:28;7.63;;;2.55;;
40252;SDS011;25972;51.854;4.534;2022-11-15T10:34:57;8.73;;;3.05;;
40252;SDS011;25972;51.854;4.534;2022-11-15T10:37:29;9.15;;;2.92;;
40252;SDS011;25972;51.854;4.534;2022-11-15T10:40:03;8.25;;;2.47;;
40252;SDS011;25972;51.854;4.534;2022-11-15T10:42:42;11.35;;;3.03;;
40252;SDS011;25972;51.854;4.534;2022-11-15T10:45:41;6.10;;;2.13;;
40252;SDS011;25972;51.854;4.534;2022-11-15T10:48:19;4.82;;;1.23;;
40252;SDS011;25972;51.854;4.534;2022-11-15T10:50:47;10.95;;;2.88;;
40252;SDS011;25972;51.854;4.534;2022-11-15T10:56:05;8.32;;;2.30;;
40252;SDS011;25972;51.854;4.534;2022-11-15T10:58:35;10.13;;;1.80;;
40252;SDS011;25972;51.854;4.534;2022-11-15T11:01:10;9.60;;;1.95;;
40252;SDS011;25972;51.854;4.534;2022-11-15T11:03:42;6.32;;;2.13;;
40252;SDS011;25972;51.854;4.534;2022-11-15T11:06:16;2.90;;;1.17;;
40252;SDS011;25972;51.854;4.534;2022-11-15T11:08:59;7.70;;;1.95;;
40252;SDS011;25972;51.854;4.534;2022-11-15T11:11:43;3.95;;;1.23;;
40252;SDS011;25972;51.854;4.534;2022-11-15T11:14:13;3.60;;;1.23;;
40252;SDS011;25972;51.854;4.534;2022-11-15T11:16:49;5.43;;;1.70;;
40252;SDS011;25972;51.854;4.534;2022-11-15T11:22:16;6.40;;;1.92;;
40252;SDS011;25972;51.854;4.534;2022-11-15T11:50:45;7.35;;;1.20;;
40252;SDS011;25972;51.854;4.534;2022-11-15T11:53:27;7.53;;;1.70;;
40252;SDS011;25972;51.854;4.534;2022-11-15T11:55:57;6.30;;;1.20;;
40252;SDS011;25972;51.854;4.534;2022-11-15T12:01:28;8.82;;;2.33;;
40252;SDS011;25972;51.854;4.534;2022-11-15T12:10:11;6.18;;;1.30;;
40252;SDS011;25972;51.854;4.534;2022-11-15T12:17:42;6.13;;;1.17;;
40252;SDS011;25972;51.854;4.534;2022-11-15T12:20:16;3.88;;;1.80;;
40252;SDS011;25972;51.854;4.534;2022-11-15T12:28:15;5.55;;;1.25;;
40252;SDS011;25972;51.854;4.534;2022-11-15T12:31:03;7.80;;;1.48;;
40252;SDS011;25972;51.854;4.534;2022-11-15T12:33:37;6.60;;;1.05;;
40252;SDS011;25972;51.854;4.534;2022-11-15T12:43:52;6.97;;;1.27;;
40252;SDS011;25972;51.854;4.534;2022-11-15T12:46:23;7.47;;;1.20;;
40252;SDS011;25972;51.854;4.534;2022-11-15T13:02:24;8.15;;;1.67;;
40252;SDS011;25972;51.854;4.534;2022-11-15T13:17:40;3.65;;;1.42;;
40252;SDS011;25972;51.854;4.534;2022-11-15T13:22:46;4.72;;;1.20;;
40252;SDS011;25972;51.854;4.534;2022-11-15T13:30:49;5.63;;;1.15;;
40252;SDS011;25972;51.854;4.534;2022-11-15T13:33:21;3.67;;;1.13;;
40252;SDS011;25972;51.854;4.534;2022-11-15T13:35:57;3.17;;;0.93;;
40252;SDS011;25972;51.854;4.534;2022-11-15T13:38:27;7.70;;;1.33;;
40252;SDS011;25972;51.854;4.534;2022-11-15T13:40:58;7.45;;;1.13;;
40252;SDS011;25972;51.854;4.534;2022-11-15T13:43:35;4.38;;;0.90;;
40252;SDS011;25972;51.854;4.534;2022-11-15T13:46:11;3.75;;;1.08;;
40252;SDS011;25972;51.854;4.534;2022-11-15T13:48:44;2.20;;;0.90;;
40252;SDS011;25972;51.854;4.534;2022-11-15T13:53:51;2.15;;;0.90;;
40252;SDS011;25972;51.854;4.534;2022-11-15T13:56:24;5.30;;;1.10;;
40252;SDS011;25972;51.854;4.534;2022-11-15T13:58:52;5.32;;;1.30;;
40252;SDS011;25972;51.854;4.534;2022-11-15T14:01:20;6.72;;;1.30;;
40252;SDS011;25972;51.854;4.534;2022-11-15T14:03:51;7.10;;;1.15;;
40252;SDS011;25972;51.854;4.534;2022-11-15T14:06:23;10.77;;;1.35;;
40252;SDS011;25972;51.854;4.534;2022-11-15T14:11:36;2.92;;;1.13;;
40252;SDS011;25972;51.854;4.534;2022-11-15T14:14:14;3.28;;;1.05;;
40252;SDS011;25972;51.854;4.534;2022-11-15T14:16:41;2.15;;;1.00;;
40252;SDS011;25972;51.854;4.534;2022-11-15T14:19:13;9.35;;;1.52;;
40252;SDS011;25972;51.854;4.534;2022-11-15T14:24:43;5.40;;;1.40;;
40252;SDS011;25972;51.854;4.534;2022-11-15T14:27:27;3.95;;;0.90;;
40252;SDS011;25972;51.854;4.534;2022-11-15T14:29:54;3.97;;;1.40;;
40252;SDS011;25972;51.854;4.534;2022-11-15T14:35:00;7.05;;;1.50;;
40252;SDS011;25972;51.854;4.534;2022-11-15T14:37:28;3.97;;;1.13;;
40252;SDS011;25972;51.854;4.534;2022-11-15T14:39:56;6.07;;;1.42;;
40252;SDS011;25972;51.854;4.534;2022-11-15T14:42:22;4.40;;;1.20;;
40252;SDS011;25972;51.854;4.534;2022-11-15T14:44:50;8.07;;;1.38;;
40252;SDS011;25972;51.854;4.534;2022-11-15T14:47:16;6.53;;;1.20;;
40252;SDS011;25972;51.854;4.534;2022-11-15T14:49:42;10.70;;;1.20;;
40252;SDS011;25972;51.854;4.534;2022-11-15T14:52:24;6.35;;;1.63;;
40252;SDS011;25972;51.854;4.534;2022-11-15T14:54:50;2.63;;;1.02;;
40252;SDS011;25972;51.854;4.534;2022-11-15T14:57:16;6.40;;;1.20;;
40252;SDS011;25972;51.854;4.534;2022-11-15T14:59:42;3.75;;;1.08;;
40252;SDS011;25972;51.854;4.534;2022-11-15T15:02:11;5.63;;;1.20;;
40252;SDS011;25972;51.854;4.534;2022-11-15T15:04:41;3.20;;;1.13;;
40252;SDS011;25972;51.854;4.534;2022-11-15T15:07:06;3.03;;;1.20;;
40252;SDS011;25972;51.854;4.534;2022-11-15T15:09:32;4.55;;;1.20;;
40252;SDS011;25972;51.854;4.534;2022-11-15T15:11:58;8.00;;;1.33;;
40252;SDS011;25972;51.854;4.534;2022-11-15T15:14:24;2.40;;;1.25;;
40252;SDS011;25972;51.854;4.534;2022-11-15T15:16:49;2.80;;;1.02;;
40252;SDS011;25972;51.854;4.534;2022-11-15T15:19:15;4.07;;;1.40;;
40252;SDS011;25972;51.854;4.534;2022-11-15T15:21:41;3.58;;;1.00;;
40252;SDS011;25972;51.854;4.534;2022-11-15T15:24:08;3.50;;;1.15;;
40252;SDS011;25972;51.854;4.534;2022-11-15T15:26:39;3.42;;;1.17;;
40252;SDS011;25972;51.854;4.534;2022-11-15T15:29:05;6.15;;;1.35;;
40252;SDS011;25972;51.854;4.534;2022-11-15T15:31:33;3.33;;;1.25;;
40252;SDS011;25972;51.854;4.534;2022-11-15T15:33:59;3.38;;;1.10;;
40252;SDS011;25972;51.854;4.534;2022-11-15T15:36:25;5.68;;;1.63;;
40252;SDS011;25972;51.854;4.534;2022-11-15T15:38:51;8.55;;;1.33;;
40252;SDS011;25972;51.854;4.534;2022-11-15T15:41:17;3.88;;;1.13;;
40252;SDS011;25972;51.854;4.534;2022-11-15T15:43:43;6.00;;;1.42;;
40252;SDS011;25972;51.854;4.534;2022-11-15T15:46:10;6.35;;;1.45;;
40252;SDS011;25972;51.854;4.534;2022-11-15T15:48:42;3.28;;;1.23;;
40252;SDS011;25972;51.854;4.534;2022-11-15T15:51:08;6.43;;;1.42;;
40252;SDS011;25972;51.854;4.534;2022-11-15T15:53:33;6.13;;;1.27;;
40252;SDS011;25972;51.854;4.534;2022-11-15T15:56:00;7.40;;;1.42;;
40252;SDS011;25972;51.854;4.534;2022-11-15T15:58:26;3.67;;;1.55;;
40252;SDS011;25972;51.854;4.534;2022-11-15T16:00:51;3.33;;;1.58;;
40252;SDS011;25972;51.854;4.534;2022-11-15T16:03:17;6.47;;;1.70;;
40252;SDS011;25972;51.854;4.534;2022-11-15T16:05:43;8.30;;;1.60;;
40252;SDS011;25972;51.854;4.534;2022-11-15T16:08:21;4.82;;;1.58;;
40252;SDS011;25972;51.854;4.534;2022-11-15T16:10:48;5.78;;;1.83;;
40252;SDS011;25972;51.854;4.534;2022-11-15T16:13:16;5.18;;;1.70;;
40252;SDS011;25972;51.854;4.534;2022-11-15T16:15:42;5.40;;;1.60;;
40252;SDS011;25972;51.854;4.534;2022-11-15T16:18:12;5.50;;;1.40;;
40252;SDS011;25972;51.854;4.534;2022-11-15T16:20:41;8.35;;;1.90;;
40252;SDS011;25972;51.854;4.534;2022-11-15T16:23:13;5.40;;;1.90;;
40252;SDS011;25972;51.854;4.534;2022-11-15T16:25:50;4.25;;;1.67;;
40252;SDS011;25972;51.854;4.534;2022-11-15T16:28:25;4.75;;;1.67;;
40252;SDS011;25972;51.854;4.534;2022-11-15T16:31:25;6.55;;;1.67;;
40252;SDS011;25972;51.854;4.534;2022-11-15T16:33:47;10.13;;;2.08;;
40252;SDS011;25972;51.854;4.534;2022-11-15T16:38:44;8.90;;;2.13;;
40252;SDS011;25972;51.854;4.534;2022-11-15T16:41:10;5.28;;;1.92;;
40252;SDS011;25972;51.854;4.534;2022-11-15T16:43:36;8.23;;;2.03;;
40252;SDS011;25972;51.854;4.534;2022-11-15T16:46:06;4.88;;;1.95;;
40252;SDS011;25972;51.854;4.534;2022-11-15T16:48:37;8.73;;;2.00;;
40252;SDS011;25972;51.854;4.534;2022-11-15T16:51:04;9.32;;;2.15;;
40252;SDS011;25972;51.854;4.534;2022-11-15T16:53:30;7.28;;;2.17;;
40252;SDS011;25972;51.854;4.534;2022-11-15T16:55:56;4.45;;;1.85;;
40252;SDS011;25972;51.854;4.534;2022-11-15T16:58:22;3.97;;;1.60;;
40252;SDS011;25972;51.854;4.534;2022-11-15T17:00:51;7.18;;;1.90;;
40252;SDS011;25972;51.854;4.534;2022-11-15T17:03:18;3.17;;;1.65;;
40252;SDS011;25972;51.854;4.534;2022-11-15T17:05:44;8.05;;;2.15;;
40252;SDS011;25972;51.854;4.534;2022-11-15T17:08:10;3.28;;;1.50;;
40252;SDS011;25972;51.854;4.534;2022-11-15T17:10:37;4.82;;;1.73;;
40252;SDS011;25972;51.854;4.534;2022-11-15T17:13:13;3.55;;;1.77;;
40252;SDS011;25972;51.854;4.534;2022-11-15T17:15:39;5.32;;;2.05;;
40252;SDS011;25972;51.854;4.534;2022-11-15T17:18:04;2.60;;;1.50;;
40252;SDS011;25972;51.854;4.534;2022-11-15T17:20:31;4.03;;;1.75;;
40252;SDS011;25972;51.854;4.534;2022-11-15T17:22:56;4.47;;;2.03;;
40252;SDS011;25972;51.854;4.534;2022-11-15T17:25:22;7.68;;;2.30;;
40252;SDS011;25972;51.854;4.534;2022-11-15T17:27:48;7.72;;;1.98;;
40252;SDS011;25972;51.854;4.534;2022-11-15T17:30:14;4.78;;;2.28;;
40252;SDS011;25972;51.854;4.534;2022-11-15T17:32:41;6.20;;;2.40;;
40252;SDS011;25972;51.854;4.534;2022-11-15T17:35:07;7.15;;;2.60;;
40252;SDS011;25972;51.854;4.534;2022-11-15T17:37:35;5.05;;;2.22;;
40252;SDS011;25972;51.854;4.534;2022-11-15T17:40:01;6.03;;;2.40;;
40252;SDS011;25972;51.854;4.534;2022-11-15T17:42:27;6.75;;;2.88;;
40252;SDS011;25972;51.854;4.534;2022-11-15T17:44:52;4.50;;;2.08;;
40252;SDS011;25972;51.854;4.534;2022-11-15T17:47:18;4.53;;;2.47;;
40252;SDS011;25972;51.854;4.534;2022-11-15T17:49:44;6.85;;;2.80;;
40252;SDS011;25972;51.854;4.534;2022-11-15T17:52:10;4.32;;;1.88;;
40252;SDS011;25972;51.854;4.534;2022-11-15T17:54:35;5.90;;;2.63;;
40252;SDS011;25972;51.854;4.534;2022-11-15T17:57:01;5.68;;;2.03;;
40252;SDS011;25972;51.854;4.534;2022-11-15T17:59:27;7.95;;;3.60;;
40252;SDS011;25972;51.854;4.534;2022-11-15T18:01:53;8.60;;;3.40;;
40252;SDS011;25972;51.854;4.534;2022-11-15T18:04:19;7.50;;;3.08;;
40252;SDS011;25972;51.854;4.534;2022-11-15T18:06:45;7.25;;;2.92;;
40252;SDS011;25972;51.854;4.534;2022-11-15T18:09:11;6.95;;;2.95;;
40252;SDS011;25972;51.854;4.534;2022-11-15T18:11:38;5.97;;;2.78;;
40252;SDS011;25972;51.854;4.534;2022-11-15T18:14:06;9.00;;;3.33;;
40252;SDS011;25972;51.854;4.534;2022-11-15T18:16:36;5.38;;;2.28;;
40252;SDS011;25972;51.854;4.534;2022-11-15T18:19:03;10.05;;;3.80;;
40252;SDS011;25972;51.854;4.534;2022-11-15T18:21:33;5.35;;;2.40;;
40252;SDS011;25972;51.854;4.534;2022-11-15T18:23:59;10.00;;;3.97;;